sensor_id;sensor_type;location;lat;lon;timestamp;P1;durP1;ratioP1;P2;durP2;ratioP2
78648;SDS011;67962;47.310;9.642;2023-04-24T00:01:43;1.83;;;0.90;;
78648;SDS011;67962;47.310;9.642;2023-04-24T00:04:08;1.42;;;0.73;;
78648;SDS011;67962;47.310;9.642;2023-04-24T00:06:36;1.52;;;0.70;;
78648;SDS011;67962;47.310;9.642;2023-04-24T00:09:03;1.20;;;0.70;;
78648;SDS011;67962;47.310;9.642;2023-04-24T00:11:30;1.95;;;0.60;;
78648;SDS011;67962;47.310;9.642;2023-04-24T00:13:56;1.80;;;0.70;;
78648;SDS011;67962;47.310;9.642;2023-04-24T00:16:21;1.02;;;0.57;;
78648;SDS011;67962;47.310;9.642;2023-04-24T00:18:48;4.82;;;0.40;;
78648;SDS011;67962;47.310;9.642;2023-04-24T00:21:14;0.60;;;0.32;;
78648;SDS011;67962;47.310;9.642;2023-04-24T00:23:43;3.30;;;0.30;;
78648;SDS011;67962;47.310;9.642;2023-04-24T00:26:09;3.53;;;0.60;;
78648;SDS011;67962;47.310;9.642;2023-04-24T00:28:35;1.42;;;0.30;;
78648;SDS011;67962;47.310;9.642;2023-04-24T00:31:01;1.38;;;0.50;;
78648;SDS011;67962;47.310;9.642;2023-04-24T00:33:27;1.48;;;0.50;;
78648;SDS011;67962;47.310;9.642;2023-04-24T00:35:52;2.38;;;0.50;;
78648;SDS011;67962;47.310;9.642;2023-04-24T00:38:18;1.63;;;0.63;;
78648;SDS011;67962;47.310;9.642;2023-04-24T00:40:44;0.88;;;0.55;;
78648;SDS011;67962;47.310;9.642;2023-04-24T00:43:10;1.33;;;0.50;;
78648;SDS011;67962;47.310;9.642;2023-04-24T00:45:36;2.25;;;0.50;;
78648;SDS011;67962;47.310;9.642;2023-04-24T00:48:02;4.43;;;0.45;;
78648;SDS011;67962;47.310;9.642;2023-04-24T00:50:29;6.13;;;0.82;;
78648;SDS011;67962;47.310;9.642;2023-04-24T00:52:55;0.50;;;0.40;;
78648;SDS011;67962;47.310;9.642;2023-04-24T00:55:21;2.25;;;0.50;;
78648;SDS011;67962;47.310;9.642;2023-04-24T00:57:47;0.93;;;0.45;;
78648;SDS011;67962;47.310;9.642;2023-04-24T01:00:14;0.70;;;0.50;;
78648;SDS011;67962;47.310;9.642;2023-04-24T01:02:41;1.10;;;0.50;;
78648;SDS011;67962;47.310;9.642;2023-04-24T01:05:10;1.02;;;0.40;;
78648;SDS011;67962;47.310;9.642;2023-04-24T01:07:37;1.08;;;0.50;;
78648;SDS011;67962;47.310;9.642;2023-04-24T01:10:05;0.88;;;0.50;;
78648;SDS011;67962;47.310;9.642;2023-04-24T01:12:32;0.77;;;0.40;;
78648;SDS011;67962;47.310;9.642;2023-04-24T01:14:58;0.77;;;0.40;;
78648;SDS011;67962;47.310;9.642;2023-04-24T01:17:24;0.32;;;0.30;;
78648;SDS011;67962;47.310;9.642;2023-04-24T01:19:50;0.40;;;0.40;;
78648;SDS011;67962;47.310;9.642;2023-04-24T01:22:18;0.57;;;0.40;;
78648;SDS011;67962;47.310;9.642;2023-04-24T01:24:45;0.30;;;0.30;;
78648;SDS011;67962;47.310;9.642;2023-04-24T01:27:11;0.30;;;0.30;;
78648;SDS011;67962;47.310;9.642;2023-04-24T01:29:38;0.60;;;0.40;;
78648;SDS011;67962;47.310;9.642;2023-04-24T01:32:04;1.00;;;0.40;;
78648;SDS011;67962;47.310;9.642;2023-04-24T01:34:30;0.60;;;0.40;;
78648;SDS011;67962;47.310;9.642;2023-04-24T01:36:57;0.50;;;0.30;;
78648;SDS011;67962;47.310;9.642;2023-04-24T01:39:23;0.30;;;0.30;;
78648;SDS011;67962;47.310;9.642;2023-04-24T01:41:50;0.50;;;0.40;;
78648;SDS011;67962;47.310;9.642;2023-04-24T01:44:17;0.82;;;0.40;;
78648;SDS011;67962;47.310;9.642;2023-04-24T01:46:43;2.58;;;0.40;;
78648;SDS011;67962;47.310;9.642;2023-04-24T01:49:09;2.10;;;0.52;;
78648;SDS011;67962;47.310;9.642;2023-04-24T01:51:35;0.30;;;0.30;;
78648;SDS011;67962;47.310;9.642;2023-04-24T01:54:02;1.15;;;0.50;;
78648;SDS011;67962;47.310;9.642;2023-04-24T01:56:31;2.75;;;0.50;;
78648;SDS011;67962;47.310;9.642;2023-04-24T01:59:00;0.65;;;0.50;;
78648;SDS011;67962;47.310;9.642;2023-04-24T02:01:33;0.40;;;0.40;;
78648;SDS011;67962;47.310;9.642;2023-04-24T02:04:01;0.30;;;0.30;;
78648;SDS011;67962;47.310;9.642;2023-04-24T02:06:27;0.50;;;0.40;;
78648;SDS011;67962;47.310;9.642;2023-04-24T02:08:52;0.80;;;0.40;;
78648;SDS011;67962;47.310;9.642;2023-04-24T02:11:18;0.30;;;0.30;;
78648;SDS011;67962;47.310;9.642;2023-04-24T02:13:44;0.63;;;0.40;;
78648;SDS011;67962;47.310;9.642;2023-04-24T02:16:09;1.40;;;0.40;;
78648;SDS011;67962;47.310;9.642;2023-04-24T02:18:35;1.27;;;0.40;;
78648;SDS011;67962;47.310;9.642;2023-04-24T02:21:01;0.57;;;0.30;;
78648;SDS011;67962;47.310;9.642;2023-04-24T02:23:27;0.45;;;0.32;;
78648;SDS011;67962;47.310;9.642;2023-04-24T02:25:53;2.50;;;0.40;;
78648;SDS011;67962;47.310;9.642;2023-04-24T02:28:19;0.40;;;0.40;;
78648;SDS011;67962;47.310;9.642;2023-04-24T02:30:45;0.55;;;0.32;;
78648;SDS011;67962;47.310;9.642;2023-04-24T02:33:11;0.50;;;0.30;;
78648;SDS011;67962;47.310;9.642;2023-04-24T02:35:37;1.23;;;0.40;;
78648;SDS011;67962;47.310;9.642;2023-04-24T02:38:03;0.68;;;0.40;;
78648;SDS011;67962;47.310;9.642;2023-04-24T02:40:29;1.85;;;0.40;;
78648;SDS011;67962;47.310;9.642;2023-04-24T02:42:55;0.88;;;0.40;;
78648;SDS011;67962;47.310;9.642;2023-04-24T02:45:20;0.52;;;0.50;;
78648;SDS011;67962;47.310;9.642;2023-04-24T02:47:46;0.63;;;0.40;;
78648;SDS011;67962;47.310;9.642;2023-04-24T02:50:12;4.03;;;0.40;;
78648;SDS011;67962;47.310;9.642;2023-04-24T02:52:38;3.67;;;0.60;;
78648;SDS011;67962;47.310;9.642;2023-04-24T02:55:04;0.52;;;0.40;;
78648;SDS011;67962;47.310;9.642;2023-04-24T02:57:30;1.27;;;0.50;;
78648;SDS011;67962;47.310;9.642;2023-04-24T02:59:56;1.63;;;0.60;;
78648;SDS011;67962;47.310;9.642;2023-04-24T03:02:21;1.50;;;0.52;;
78648;SDS011;67962;47.310;9.642;2023-04-24T03:04:47;3.03;;;0.55;;
78648;SDS011;67962;47.310;9.642;2023-04-24T03:07:13;0.73;;;0.45;;
78648;SDS011;67962;47.310;9.642;2023-04-24T03:09:39;1.20;;;0.50;;
78648;SDS011;67962;47.310;9.642;2023-04-24T03:12:05;0.85;;;0.40;;
78648;SDS011;67962;47.310;9.642;2023-04-24T03:14:31;1.35;;;0.60;;
78648;SDS011;67962;47.310;9.642;2023-04-24T03:16:57;0.98;;;0.50;;
78648;SDS011;67962;47.310;9.642;2023-04-24T03:19:23;2.92;;;0.70;;
78648;SDS011;67962;47.310;9.642;2023-04-24T03:21:49;2.38;;;0.57;;
78648;SDS011;67962;47.310;9.642;2023-04-24T03:24:15;0.88;;;0.50;;
78648;SDS011;67962;47.310;9.642;2023-04-24T03:26:41;1.00;;;0.40;;
78648;SDS011;67962;47.310;9.642;2023-04-24T03:29:07;0.40;;;0.32;;
78648;SDS011;67962;47.310;9.642;2023-04-24T03:31:32;0.60;;;0.40;;
78648;SDS011;67962;47.310;9.642;2023-04-24T03:33:58;1.10;;;0.60;;
78648;SDS011;67962;47.310;9.642;2023-04-24T03:36:24;1.42;;;0.50;;
78648;SDS011;67962;47.310;9.642;2023-04-24T03:38:51;2.33;;;0.50;;
78648;SDS011;67962;47.310;9.642;2023-04-24T03:41:16;2.08;;;0.50;;
78648;SDS011;67962;47.310;9.642;2023-04-24T03:43:42;1.48;;;0.50;;
78648;SDS011;67962;47.310;9.642;2023-04-24T03:46:08;0.70;;;0.45;;
78648;SDS011;67962;47.310;9.642;2023-04-24T03:48:34;0.40;;;0.30;;
78648;SDS011;67962;47.310;9.642;2023-04-24T03:51:00;2.28;;;0.50;;
78648;SDS011;67962;47.310;9.642;2023-04-24T03:53:26;0.55;;;0.50;;
78648;SDS011;67962;47.310;9.642;2023-04-24T03:55:52;0.82;;;0.40;;
78648;SDS011;67962;47.310;9.642;2023-04-24T03:58:18;3.00;;;0.40;;
78648;SDS011;67962;47.310;9.642;2023-04-24T04:00:44;0.40;;;0.40;;
78648;SDS011;67962;47.310;9.642;2023-04-24T04:03:11;0.40;;;0.30;;
78648;SDS011;67962;47.310;9.642;2023-04-24T04:05:38;0.40;;;0.40;;
78648;SDS011;67962;47.310;9.642;2023-04-24T04:08:04;0.80;;;0.40;;
78648;SDS011;67962;47.310;9.642;2023-04-24T04:10:30;0.55;;;0.43;;
78648;SDS011;67962;47.310;9.642;2023-04-24T04:12:56;0.95;;;0.60;;
78648;SDS011;67962;47.310;9.642;2023-04-24T04:15:21;0.90;;;0.55;;
78648;SDS011;67962;47.310;9.642;2023-04-24T04:17:47;1.48;;;0.70;;
78648;SDS011;67962;47.310;9.642;2023-04-24T04:20:13;1.02;;;0.60;;
78648;SDS011;67962;47.310;9.642;2023-04-24T04:22:39;0.93;;;0.52;;
78648;SDS011;67962;47.310;9.642;2023-04-24T04:25:05;2.63;;;0.52;;
78648;SDS011;67962;47.310;9.642;2023-04-24T04:27:31;3.28;;;1.00;;
78648;SDS011;67962;47.310;9.642;2023-04-24T04:29:59;0.98;;;0.80;;
78648;SDS011;67962;47.310;9.642;2023-04-24T04:32:32;3.42;;;1.05;;
78648;SDS011;67962;47.310;9.642;2023-04-24T04:34:59;2.53;;;1.30;;
78648;SDS011;67962;47.310;9.642;2023-04-24T04:37:29;2.05;;;0.90;;
78648;SDS011;67962;47.310;9.642;2023-04-24T04:39:56;2.30;;;1.10;;
78648;SDS011;67962;47.310;9.642;2023-04-24T04:42:28;1.63;;;0.80;;
78648;SDS011;67962;47.310;9.642;2023-04-24T04:44:54;1.35;;;0.90;;
78648;SDS011;67962;47.310;9.642;2023-04-24T04:47:21;1.63;;;1.02;;
78648;SDS011;67962;47.310;9.642;2023-04-24T04:49:50;1.20;;;0.90;;
78648;SDS011;67962;47.310;9.642;2023-04-24T04:52:19;1.75;;;0.93;;
78648;SDS011;67962;47.310;9.642;2023-04-24T04:54:44;1.65;;;1.10;;
78648;SDS011;67962;47.310;9.642;2023-04-24T04:57:11;4.30;;;1.10;;
78648;SDS011;67962;47.310;9.642;2023-04-24T04:59:37;1.20;;;0.90;;
78648;SDS011;67962;47.310;9.642;2023-04-24T05:02:03;3.22;;;1.20;;
78648;SDS011;67962;47.310;9.642;2023-04-24T05:04:29;1.95;;;1.30;;
78648;SDS011;67962;47.310;9.642;2023-04-24T05:06:55;1.17;;;0.98;;
78648;SDS011;67962;47.310;9.642;2023-04-24T05:09:21;1.52;;;0.95;;
78648;SDS011;67962;47.310;9.642;2023-04-24T05:11:47;2.13;;;1.10;;
78648;SDS011;67962;47.310;9.642;2023-04-24T05:14:12;8.25;;;1.30;;
78648;SDS011;67962;47.310;9.642;2023-04-24T05:16:39;1.58;;;1.17;;
78648;SDS011;67962;47.310;9.642;2023-04-24T05:19:05;6.97;;;1.20;;
78648;SDS011;67962;47.310;9.642;2023-04-24T05:21:31;1.35;;;1.10;;
78648;SDS011;67962;47.310;9.642;2023-04-24T05:23:56;4.22;;;1.00;;
78648;SDS011;67962;47.310;9.642;2023-04-24T05:26:22;1.10;;;1.00;;
78648;SDS011;67962;47.310;9.642;2023-04-24T05:28:48;3.50;;;0.88;;
78648;SDS011;67962;47.310;9.642;2023-04-24T05:31:14;8.50;;;1.70;;
78648;SDS011;67962;47.310;9.642;2023-04-24T05:33:42;6.10;;;2.60;;
78648;SDS011;67962;47.310;9.642;2023-04-24T05:36:08;7.47;;;2.47;;
78648;SDS011;67962;47.310;9.642;2023-04-24T05:38:34;1.35;;;0.90;;
78648;SDS011;67962;47.310;9.642;2023-04-24T05:40:59;3.42;;;1.45;;
78648;SDS011;67962;47.310;9.642;2023-04-24T05:43:25;2.50;;;1.30;;
78648;SDS011;67962;47.310;9.642;2023-04-24T05:45:51;3.00;;;1.20;;
78648;SDS011;67962;47.310;9.642;2023-04-24T05:48:18;2.92;;;1.10;;
78648;SDS011;67962;47.310;9.642;2023-04-24T05:50:44;6.20;;;1.25;;
78648;SDS011;67962;47.310;9.642;2023-04-24T05:53:12;4.53;;;1.00;;
78648;SDS011;67962;47.310;9.642;2023-04-24T05:55:37;1.02;;;0.73;;
78648;SDS011;67962;47.310;9.642;2023-04-24T05:58:03;1.20;;;0.88;;
78648;SDS011;67962;47.310;9.642;2023-04-24T06:00:29;1.67;;;1.08;;
78648;SDS011;67962;47.310;9.642;2023-04-24T06:02:55;14.10;;;5.18;;
78648;SDS011;67962;47.310;9.642;2023-04-24T06:05:21;5.35;;;2.45;;
78648;SDS011;67962;47.310;9.642;2023-04-24T06:07:47;7.43;;;3.03;;
78648;SDS011;67962;47.310;9.642;2023-04-24T06:10:13;11.32;;;3.80;;
78648;SDS011;67962;47.310;9.642;2023-04-24T06:12:39;11.15;;;3.63;;
78648;SDS011;67962;47.310;9.642;2023-04-24T06:15:05;11.13;;;2.55;;
78648;SDS011;67962;47.310;9.642;2023-04-24T06:17:32;8.80;;;2.40;;
78648;SDS011;67962;47.310;9.642;2023-04-24T06:19:57;4.00;;;1.73;;
78648;SDS011;67962;47.310;9.642;2023-04-24T06:22:23;1.77;;;1.00;;
78648;SDS011;67962;47.310;9.642;2023-04-24T06:24:49;1.75;;;0.90;;
78648;SDS011;67962;47.310;9.642;2023-04-24T06:27:14;1.85;;;0.70;;
78648;SDS011;67962;47.310;9.642;2023-04-24T06:29:40;2.03;;;0.65;;
78648;SDS011;67962;47.310;9.642;2023-04-24T06:32:06;4.45;;;0.80;;
78648;SDS011;67962;47.310;9.642;2023-04-24T06:34:32;0.57;;;0.52;;
78648;SDS011;67962;47.310;9.642;2023-04-24T06:36:59;0.60;;;0.50;;
78648;SDS011;67962;47.310;9.642;2023-04-24T06:39:25;2.72;;;0.68;;
78648;SDS011;67962;47.310;9.642;2023-04-24T06:41:50;4.57;;;0.70;;
78648;SDS011;67962;47.310;9.642;2023-04-24T06:44:16;1.52;;;0.90;;
78648;SDS011;67962;47.310;9.642;2023-04-24T06:46:42;5.55;;;0.95;;
78648;SDS011;67962;47.310;9.642;2023-04-24T06:49:09;1.08;;;0.70;;
78648;SDS011;67962;47.310;9.642;2023-04-24T06:51:35;2.15;;;0.50;;
78648;SDS011;67962;47.310;9.642;2023-04-24T06:54:01;1.00;;;0.60;;
78648;SDS011;67962;47.310;9.642;2023-04-24T06:56:27;0.90;;;0.50;;
78648;SDS011;67962;47.310;9.642;2023-04-24T06:58:54;0.60;;;0.50;;
78648;SDS011;67962;47.310;9.642;2023-04-24T07:01:19;0.55;;;0.40;;
78648;SDS011;67962;47.310;9.642;2023-04-24T07:03:45;0.85;;;0.50;;
78648;SDS011;67962;47.310;9.642;2023-04-24T07:06:11;0.40;;;0.40;;
78648;SDS011;67962;47.310;9.642;2023-04-24T07:08:37;0.77;;;0.50;;
78648;SDS011;67962;47.310;9.642;2023-04-24T07:11:03;0.47;;;0.40;;
78648;SDS011;67962;47.310;9.642;2023-04-24T07:13:29;1.15;;;0.50;;
78648;SDS011;67962;47.310;9.642;2023-04-24T07:15:55;0.75;;;0.50;;
78648;SDS011;67962;47.310;9.642;2023-04-24T07:18:21;1.20;;;0.70;;
78648;SDS011;67962;47.310;9.642;2023-04-24T07:20:47;0.63;;;0.47;;
78648;SDS011;67962;47.310;9.642;2023-04-24T07:23:15;0.30;;;0.30;;
78648;SDS011;67962;47.310;9.642;2023-04-24T07:25:41;0.40;;;0.30;;
78648;SDS011;67962;47.310;9.642;2023-04-24T07:28:06;0.47;;;0.40;;
78648;SDS011;67962;47.310;9.642;2023-04-24T07:30:32;0.30;;;0.30;;
78648;SDS011;67962;47.310;9.642;2023-04-24T07:32:58;0.35;;;0.30;;
78648;SDS011;67962;47.310;9.642;2023-04-24T07:35:24;0.88;;;0.75;;
78648;SDS011;67962;47.310;9.642;2023-04-24T07:37:51;1.27;;;0.40;;
78648;SDS011;67962;47.310;9.642;2023-04-24T07:40:18;0.40;;;0.40;;
78648;SDS011;67962;47.310;9.642;2023-04-24T07:42:45;1.65;;;0.60;;
78648;SDS011;67962;47.310;9.642;2023-04-24T07:45:13;3.40;;;0.30;;
78648;SDS011;67962;47.310;9.642;2023-04-24T07:47:39;0.30;;;0.30;;
78648;SDS011;67962;47.310;9.642;2023-04-24T07:50:08;0.40;;;0.40;;
78648;SDS011;67962;47.310;9.642;2023-04-24T07:52:35;0.50;;;0.40;;
78648;SDS011;67962;47.310;9.642;2023-04-24T07:55:01;0.85;;;0.40;;
78648;SDS011;67962;47.310;9.642;2023-04-24T07:57:27;0.40;;;0.40;;
78648;SDS011;67962;47.310;9.642;2023-04-24T07:59:53;0.40;;;0.40;;
78648;SDS011;67962;47.310;9.642;2023-04-24T08:02:19;0.55;;;0.35;;
78648;SDS011;67962;47.310;9.642;2023-04-24T08:04:46;0.70;;;0.40;;
78648;SDS011;67962;47.310;9.642;2023-04-24T08:07:12;1.35;;;0.80;;
78648;SDS011;67962;47.310;9.642;2023-04-24T08:09:38;0.68;;;0.50;;
78648;SDS011;67962;47.310;9.642;2023-04-24T08:12:03;0.60;;;0.50;;
78648;SDS011;67962;47.310;9.642;2023-04-24T08:14:29;0.40;;;0.40;;
78648;SDS011;67962;47.310;9.642;2023-04-24T08:16:55;0.43;;;0.43;;
78648;SDS011;67962;47.310;9.642;2023-04-24T08:19:21;0.82;;;0.30;;
78648;SDS011;67962;47.310;9.642;2023-04-24T08:21:47;0.43;;;0.43;;
78648;SDS011;67962;47.310;9.642;2023-04-24T08:24:12;0.70;;;0.50;;
78648;SDS011;67962;47.310;9.642;2023-04-24T08:26:38;0.70;;;0.45;;
78648;SDS011;67962;47.310;9.642;2023-04-24T08:29:04;0.82;;;0.50;;
78648;SDS011;67962;47.310;9.642;2023-04-24T08:31:31;0.50;;;0.40;;
78648;SDS011;67962;47.310;9.642;2023-04-24T08:33:57;0.50;;;0.40;;
78648;SDS011;67962;47.310;9.642;2023-04-24T08:36:24;0.55;;;0.40;;
78648;SDS011;67962;47.310;9.642;2023-04-24T08:38:51;0.80;;;0.40;;
78648;SDS011;67962;47.310;9.642;2023-04-24T08:41:17;0.65;;;0.43;;
78648;SDS011;67962;47.310;9.642;2023-04-24T08:43:45;0.70;;;0.40;;
78648;SDS011;67962;47.310;9.642;2023-04-24T08:46:11;0.50;;;0.50;;
78648;SDS011;67962;47.310;9.642;2023-04-24T08:48:38;1.23;;;0.70;;
78648;SDS011;67962;47.310;9.642;2023-04-24T08:51:06;2.03;;;0.90;;
78648;SDS011;67962;47.310;9.642;2023-04-24T08:53:33;2.45;;;0.60;;
78648;SDS011;67962;47.310;9.642;2023-04-24T08:56:00;1.40;;;0.65;;
78648;SDS011;67962;47.310;9.642;2023-04-24T08:58:27;1.60;;;0.50;;
78648;SDS011;67962;47.310;9.642;2023-04-24T09:00:56;1.85;;;0.88;;
78648;SDS011;67962;47.310;9.642;2023-04-24T09:03:23;2.17;;;1.05;;
78648;SDS011;67962;47.310;9.642;2023-04-24T09:05:49;4.97;;;1.00;;
78648;SDS011;67962;47.310;9.642;2023-04-24T09:08:18;2.55;;;0.80;;
78648;SDS011;67962;47.310;9.642;2023-04-24T09:10:44;3.15;;;0.65;;
78648;SDS011;67962;47.310;9.642;2023-04-24T09:13:10;1.75;;;1.02;;
78648;SDS011;67962;47.310;9.642;2023-04-24T09:15:37;1.50;;;0.68;;
78648;SDS011;67962;47.310;9.642;2023-04-24T09:18:03;1.02;;;0.50;;
78648;SDS011;67962;47.310;9.642;2023-04-24T09:20:29;3.03;;;0.50;;
78648;SDS011;67962;47.310;9.642;2023-04-24T09:22:58;0.80;;;0.60;;
78648;SDS011;67962;47.310;9.642;2023-04-24T09:25:34;1.50;;;0.70;;
78648;SDS011;67962;47.310;9.642;2023-04-24T09:28:03;1.38;;;0.60;;
78648;SDS011;67962;47.310;9.642;2023-04-24T09:30:31;0.88;;;0.55;;
78648;SDS011;67962;47.310;9.642;2023-04-24T09:33:15;0.40;;;0.40;;
78648;SDS011;67962;47.310;9.642;2023-04-24T09:35:41;2.13;;;0.65;;
78648;SDS011;67962;47.310;9.642;2023-04-24T09:38:08;1.63;;;0.40;;
78648;SDS011;67962;47.310;9.642;2023-04-24T09:40:34;0.57;;;0.40;;
78648;SDS011;67962;47.310;9.642;2023-04-24T09:43:00;0.65;;;0.45;;
78648;SDS011;67962;47.310;9.642;2023-04-24T09:45:37;2.78;;;0.77;;
78648;SDS011;67962;47.310;9.642;2023-04-24T09:48:04;0.50;;;0.40;;
78648;SDS011;67962;47.310;9.642;2023-04-24T09:50:31;1.00;;;0.40;;
78648;SDS011;67962;47.310;9.642;2023-04-24T09:53:04;0.95;;;0.30;;
78648;SDS011;67962;47.310;9.642;2023-04-24T09:55:33;0.50;;;0.32;;
78648;SDS011;67962;47.310;9.642;2023-04-24T09:58:07;0.50;;;0.47;;
78648;SDS011;67962;47.310;9.642;2023-04-24T10:00:33;0.70;;;0.47;;
78648;SDS011;67962;47.310;9.642;2023-04-24T10:02:59;0.60;;;0.45;;
78648;SDS011;67962;47.310;9.642;2023-04-24T10:05:27;4.25;;;0.60;;
78648;SDS011;67962;47.310;9.642;2023-04-24T10:08:01;0.98;;;0.60;;
78648;SDS011;67962;47.310;9.642;2023-04-24T10:10:29;0.65;;;0.47;;
78648;SDS011;67962;47.310;9.642;2023-04-24T10:12:56;0.52;;;0.50;;
78648;SDS011;67962;47.310;9.642;2023-04-24T10:15:22;0.63;;;0.50;;
78648;SDS011;67962;47.310;9.642;2023-04-24T10:17:49;0.98;;;0.60;;
78648;SDS011;67962;47.310;9.642;2023-04-24T10:20:21;0.98;;;0.50;;
78648;SDS011;67962;47.310;9.642;2023-04-24T10:22:48;0.70;;;0.60;;
78648;SDS011;67962;47.310;9.642;2023-04-24T10:25:16;0.98;;;0.63;;
78648;SDS011;67962;47.310;9.642;2023-04-24T10:27:46;1.65;;;0.70;;
78648;SDS011;67962;47.310;9.642;2023-04-24T10:30:12;0.70;;;0.65;;
78648;SDS011;67962;47.310;9.642;2023-04-24T10:32:39;1.20;;;0.70;;
78648;SDS011;67962;47.310;9.642;2023-04-24T10:35:06;1.10;;;0.70;;
78648;SDS011;67962;47.310;9.642;2023-04-24T10:37:43;0.60;;;0.60;;
78648;SDS011;67962;47.310;9.642;2023-04-24T10:40:11;0.90;;;0.60;;
78648;SDS011;67962;47.310;9.642;2023-04-24T10:42:41;1.77;;;0.70;;
78648;SDS011;67962;47.310;9.642;2023-04-24T10:45:18;0.93;;;0.55;;
78648;SDS011;67962;47.310;9.642;2023-04-24T10:50:21;0.70;;;0.68;;
78648;SDS011;67962;47.310;9.642;2023-04-24T10:52:47;2.25;;;0.77;;
78648;SDS011;67962;47.310;9.642;2023-04-24T10:55:16;1.17;;;0.80;;
78648;SDS011;67962;47.310;9.642;2023-04-24T10:58:05;3.05;;;0.70;;
78648;SDS011;67962;47.310;9.642;2023-04-24T11:00:30;1.10;;;0.70;;
78648;SDS011;67962;47.310;9.642;2023-04-24T11:02:56;0.90;;;0.70;;
78648;SDS011;67962;47.310;9.642;2023-04-24T11:05:23;2.97;;;1.00;;
78648;SDS011;67962;47.310;9.642;2023-04-24T11:08:16;1.48;;;0.90;;
78648;SDS011;67962;47.310;9.642;2023-04-24T11:10:47;1.67;;;1.20;;
78648;SDS011;67962;47.310;9.642;2023-04-24T11:13:22;1.17;;;0.90;;
78648;SDS011;67962;47.310;9.642;2023-04-24T11:19:04;1.52;;;0.80;;
78648;SDS011;67962;47.310;9.642;2023-04-24T11:26:54;1.63;;;0.90;;
78648;SDS011;67962;47.310;9.642;2023-04-24T11:29:22;1.13;;;0.90;;
78648;SDS011;67962;47.310;9.642;2023-04-24T11:31:48;1.02;;;0.80;;
78648;SDS011;67962;47.310;9.642;2023-04-24T11:34:17;3.78;;;0.80;;
78648;SDS011;67962;47.310;9.642;2023-04-24T11:36:46;3.00;;;0.88;;
78648;SDS011;67962;47.310;9.642;2023-04-24T11:39:13;2.03;;;1.00;;
78648;SDS011;67962;47.310;9.642;2023-04-24T11:41:39;1.80;;;1.00;;
78648;SDS011;67962;47.310;9.642;2023-04-24T11:44:06;1.08;;;0.80;;
78648;SDS011;67962;47.310;9.642;2023-04-24T11:46:33;1.08;;;0.60;;
78648;SDS011;67962;47.310;9.642;2023-04-24T11:48:59;2.15;;;1.10;;
78648;SDS011;67962;47.310;9.642;2023-04-24T11:51:26;2.10;;;0.93;;
78648;SDS011;67962;47.310;9.642;2023-04-24T11:53:55;3.35;;;1.10;;
78648;SDS011;67962;47.310;9.642;2023-04-24T11:56:22;3.55;;;1.17;;
78648;SDS011;67962;47.310;9.642;2023-04-24T11:58:48;4.65;;;0.90;;
78648;SDS011;67962;47.310;9.642;2023-04-24T12:01:16;1.45;;;0.90;;
78648;SDS011;67962;47.310;9.642;2023-04-24T12:03:46;2.28;;;1.25;;
78648;SDS011;67962;47.310;9.642;2023-04-24T12:06:24;1.13;;;0.82;;
78648;SDS011;67962;47.310;9.642;2023-04-24T12:08:50;2.55;;;0.90;;
78648;SDS011;67962;47.310;9.642;2023-04-24T12:11:17;3.20;;;1.10;;
78648;SDS011;67962;47.310;9.642;2023-04-24T12:13:43;2.05;;;0.90;;
78648;SDS011;67962;47.310;9.642;2023-04-24T12:16:10;1.17;;;0.90;;
78648;SDS011;67962;47.310;9.642;2023-04-24T12:18:41;3.60;;;1.15;;
78648;SDS011;67962;47.310;9.642;2023-04-24T12:21:14;1.35;;;0.90;;
78648;SDS011;67962;47.310;9.642;2023-04-24T12:23:46;2.00;;;0.85;;
78648;SDS011;67962;47.310;9.642;2023-04-24T12:26:21;3.55;;;0.80;;
78648;SDS011;67962;47.310;9.642;2023-04-24T12:28:48;3.65;;;0.90;;
78648;SDS011;67962;47.310;9.642;2023-04-24T12:31:15;1.95;;;0.90;;
78648;SDS011;67962;47.310;9.642;2023-04-24T12:33:41;2.75;;;1.45;;
78648;SDS011;67962;47.310;9.642;2023-04-24T12:36:09;1.80;;;0.65;;
78648;SDS011;67962;47.310;9.642;2023-04-24T12:38:37;1.23;;;0.90;;
78648;SDS011;67962;47.310;9.642;2023-04-24T12:41:07;1.70;;;0.93;;
78648;SDS011;67962;47.310;9.642;2023-04-24T12:43:37;1.77;;;0.90;;
78648;SDS011;67962;47.310;9.642;2023-04-24T12:46:03;6.57;;;1.20;;
78648;SDS011;67962;47.310;9.642;2023-04-24T12:48:29;2.25;;;1.23;;
78648;SDS011;67962;47.310;9.642;2023-04-24T12:50:59;1.42;;;0.95;;
78648;SDS011;67962;47.310;9.642;2023-04-24T12:53:28;2.83;;;1.10;;
78648;SDS011;67962;47.310;9.642;2023-04-24T12:55:55;2.55;;;1.45;;
78648;SDS011;67962;47.310;9.642;2023-04-24T12:58:21;3.92;;;1.17;;
78648;SDS011;67962;47.310;9.642;2023-04-24T13:00:47;3.63;;;1.85;;
78648;SDS011;67962;47.310;9.642;2023-04-24T13:03:13;3.10;;;1.35;;
78648;SDS011;67962;47.310;9.642;2023-04-24T13:05:39;1.52;;;1.13;;
78648;SDS011;67962;47.310;9.642;2023-04-24T13:08:05;1.20;;;0.90;;
78648;SDS011;67962;47.310;9.642;2023-04-24T13:10:31;5.25;;;1.00;;
78648;SDS011;67962;47.310;9.642;2023-04-24T13:12:57;2.15;;;1.20;;
78648;SDS011;67962;47.310;9.642;2023-04-24T13:15:23;2.90;;;1.23;;
78648;SDS011;67962;47.310;9.642;2023-04-24T13:17:49;2.22;;;1.13;;
78648;SDS011;67962;47.310;9.642;2023-04-24T13:20:15;2.38;;;1.10;;
78648;SDS011;67962;47.310;9.642;2023-04-24T13:22:41;1.75;;;0.90;;
78648;SDS011;67962;47.310;9.642;2023-04-24T13:25:06;1.75;;;0.93;;
78648;SDS011;67962;47.310;9.642;2023-04-24T13:27:32;2.33;;;1.00;;
78648;SDS011;67962;47.310;9.642;2023-04-24T13:29:58;1.25;;;0.95;;
78648;SDS011;67962;47.310;9.642;2023-04-24T13:32:24;1.67;;;0.98;;
78648;SDS011;67962;47.310;9.642;2023-04-24T13:34:50;1.45;;;0.90;;
78648;SDS011;67962;47.310;9.642;2023-04-24T13:37:16;1.23;;;0.82;;
78648;SDS011;67962;47.310;9.642;2023-04-24T13:39:41;2.13;;;1.20;;
78648;SDS011;67962;47.310;9.642;2023-04-24T13:42:07;1.63;;;0.80;;
78648;SDS011;67962;47.310;9.642;2023-04-24T13:44:33;1.83;;;1.00;;
78648;SDS011;67962;47.310;9.642;2023-04-24T13:46:59;1.33;;;0.90;;
78648;SDS011;67962;47.310;9.642;2023-04-24T13:49:25;3.08;;;1.10;;
78648;SDS011;67962;47.310;9.642;2023-04-24T13:51:51;1.77;;;0.93;;
78648;SDS011;67962;47.310;9.642;2023-04-24T13:54:17;2.03;;;1.13;;
78648;SDS011;67962;47.310;9.642;2023-04-24T13:56:44;1.40;;;1.00;;
78648;SDS011;67962;47.310;9.642;2023-04-24T13:59:11;2.55;;;1.00;;
78648;SDS011;67962;47.310;9.642;2023-04-24T14:01:39;2.78;;;0.90;;
78648;SDS011;67962;47.310;9.642;2023-04-24T14:04:05;1.42;;;0.98;;
78648;SDS011;67962;47.310;9.642;2023-04-24T14:06:32;2.38;;;1.10;;
78648;SDS011;67962;47.310;9.642;2023-04-24T14:08:57;1.92;;;0.95;;
78648;SDS011;67962;47.310;9.642;2023-04-24T14:11:23;3.80;;;0.80;;
78648;SDS011;67962;47.310;9.642;2023-04-24T14:13:49;1.70;;;1.00;;
78648;SDS011;67962;47.310;9.642;2023-04-24T14:16:15;1.63;;;1.05;;
78648;SDS011;67962;47.310;9.642;2023-04-24T14:18:41;2.80;;;1.02;;
78648;SDS011;67962;47.310;9.642;2023-04-24T14:21:06;1.75;;;0.98;;
78648;SDS011;67962;47.310;9.642;2023-04-24T14:23:32;3.60;;;0.73;;
78648;SDS011;67962;47.310;9.642;2023-04-24T14:25:58;1.23;;;0.57;;
78648;SDS011;67962;47.310;9.642;2023-04-24T14:28:24;1.00;;;0.60;;
78648;SDS011;67962;47.310;9.642;2023-04-24T14:30:51;0.63;;;0.60;;
78648;SDS011;67962;47.310;9.642;2023-04-24T14:33:17;1.65;;;0.70;;
78648;SDS011;67962;47.310;9.642;2023-04-24T14:35:43;0.70;;;0.60;;
78648;SDS011;67962;47.310;9.642;2023-04-24T14:38:09;1.23;;;0.60;;
78648;SDS011;67962;47.310;9.642;2023-04-24T14:40:35;1.23;;;0.70;;
78648;SDS011;67962;47.310;9.642;2023-04-24T14:43:01;1.05;;;0.73;;
78648;SDS011;67962;47.310;9.642;2023-04-24T14:45:27;1.63;;;0.85;;
78648;SDS011;67962;47.310;9.642;2023-04-24T14:47:53;1.83;;;0.70;;
78648;SDS011;67962;47.310;9.642;2023-04-24T14:50:19;2.38;;;0.50;;
78648;SDS011;67962;47.310;9.642;2023-04-24T14:52:45;1.63;;;0.80;;
78648;SDS011;67962;47.310;9.642;2023-04-24T14:55:11;1.67;;;0.88;;
78648;SDS011;67962;47.310;9.642;2023-04-24T14:57:37;1.10;;;0.80;;